Time;durP1;ratioP1;P1;durP2;ratioP2;P2;SDS_P1;SDS_P2;PMS_P1;PMS_P2;Temp;Humidity;BMP_temperature;BMP_pressure;BME280_temperature;BME280_humidity;BME280_pressure;Samples;Min_cycle;Max_cycle;Signal;HPM_P1;HPM_P2
2022/01/26 00:07:32;;;;;;;;;;;4.60;77.00;;;;;;5013875;28;19928;-79
2022/01/26 00:09:58;;;;;;;;;;;4.50;77.30;;;;;;5006725;28;19913;-79
2022/01/26 00:12:23;;;;;;;;;;;4.50;77.40;;;;;;5005611;28;20019;-80
2022/01/26 00:14:49;;;;;;;;;;;4.60;77.10;;;;;;5011905;28;20013;-80
2022/01/26 00:17:15;;;;;;;;;;;4.60;76.80;;;;;;5013584;28;19928;-80
2022/01/26 00:20:19;;;;;;;;;;;4.70;76.90;;;;;;5001088;28;19914;-80
2022/01/26 00:28:08;;;;;;;;;;;4.70;77.00;;;;;;5019193;28;19956;-80
2022/01/26 00:38:48;;;;;;;;;;;4.60;77.80;;;;;;5023931;28;20485;-79
2022/01/26 00:41:18;;;;;;;;;;;4.60;76.90;;;;;;5006425;28;19925;-80
2022/01/26 00:43:49;;;;;;;;;;;4.50;77.50;;;;;;5004226;28;20289;-79
2022/01/26 00:46:15;;;;;;;;;;;4.40;77.60;;;;;;5027246;28;19917;-79
2022/01/26 00:48:42;;;;;;;;;;;4.40;77.40;;;;;;5002343;28;19913;-80
2022/01/26 00:51:07;;;;;;;;;;;4.50;78.40;;;;;;5009537;28;20006;-78
2022/01/26 00:53:37;;;;;;;;;;;4.50;78.10;;;;;;5008528;28;19994;-80
2022/01/26 00:56:04;;;;;;;;;;;4.50;78.40;;;;;;4998648;28;19917;-79
2022/01/26 00:58:30;;;;;;;;;;;4.50;78.40;;;;;;4988673;28;20077;-79
2022/01/26 01:00:57;;;;;;;;;;;4.40;78.10;;;;;;5016103;28;19928;-80
2022/01/26 01:03:23;;;;;;;;;;;4.50;78.50;;;;;;5028199;28;19932;-80
2022/01/26 01:06:14;;;;;;;;;;;4.50;78.40;;;;;;5002160;28;19921;-80
2022/01/26 01:08:39;;;;;;;;;;;4.50;78.20;;;;;;5025461;28;19940;-79
2022/01/26 01:11:05;;;;;;;;;;;4.60;78.00;;;;;;5024486;28;19948;-80
2022/01/26 01:13:34;;;;;;;;;;;4.50;78.30;;;;;;5014509;28;19918;-79
2022/01/26 01:16:00;;;;;;;;;;;4.60;78.30;;;;;;5016079;28;19981;-80
2022/01/26 01:26:39;;;;;;;;;;;4.60;77.70;;;;;;5021139;28;19924;-80
2022/01/26 01:31:52;;;;;;;;;;;4.60;77.80;;;;;;5022152;28;19916;-79
2022/01/26 01:34:24;;;;;;;;;;;4.60;77.50;;;;;;5023778;28;19931;-79
2022/01/26 01:36:52;;;;;;;;;;;4.60;77.50;;;;;;4999585;28;20020;-80
2022/01/26 01:39:18;;;;;;;;;;;4.50;78.00;;;;;;4998628;28;19921;-79
2022/01/26 01:41:45;;;;;;;;;;;4.50;77.50;;;;;;5000157;28;20008;-79
2022/01/26 01:44:11;;;;;;;;;;;4.50;77.50;;;;;;5001920;28;20429;-79
2022/01/26 01:46:38;;;;;;;;;;;4.50;77.60;;;;;;4871898;22;19925;-83
2022/01/26 01:49:05;;;;;;;;;;;4.50;77.70;;;;;;5032231;28;19939;-83
2022/01/26 01:51:35;;;;;;;;;;;4.60;77.50;;;;;;5033154;28;19913;-83
2022/01/26 01:54:01;;;;;;;;;;;4.60;78.00;;;;;;5027179;28;19985;-83
2022/01/26 01:56:27;;;;;;;;;;;4.60;77.80;;;;;;5009997;28;19933;-84
2022/01/26 01:58:59;;;;;;;;;;;4.50;77.00;;;;;;5010915;28;20067;-83
2022/01/26 02:01:25;;;;;;;;;;;4.60;76.40;;;;;;5015023;28;19949;-84
2022/01/26 02:03:51;;;;;;;;;;;4.50;76.40;;;;;;5015452;28;20453;-83
2022/01/26 02:06:16;;;;;;;;;;;4.50;76.50;;;;;;5027270;28;19913;-83
2022/01/26 02:08:42;;;;;;;;;;;4.50;76.40;;;;;;5027639;28;19973;-82
2022/01/26 02:11:11;;;;;;;;;;;4.40;76.60;;;;;;5022051;28;19949;-84
2022/01/26 02:14:23;;;;;;;;;;;4.40;76.70;;;;;;5016738;28;20117;-84
2022/01/26 02:54:33;;;;;;;;;;;4.60;75.80;;;;;;5011164;28;19927;-82
2022/01/26 02:59:58;;;;;;;;;;;4.60;75.60;;;;;;5009271;28;19922;-82
2022/01/26 03:04:55;;;;;;;;;;;4.60;75.00;;;;;;5011159;28;20445;-82
2022/01/26 03:07:35;;;;;;;;;;;4.50;75.70;;;;;;5009512;28;19914;-84
2022/01/26 03:10:07;;;;;;;;;;;4.60;75.40;;;;;;5011866;28;19910;-83
2022/01/26 03:12:45;;;;;;;;;;;4.60;75.70;;;;;;5009743;28;19913;-83
2022/01/26 03:15:20;;;;;;;;;;;4.50;75.30;;;;;;5008641;28;19917;-83
2022/01/26 03:20:32;;;;;;;;;;;4.50;74.90;;;;;;5002609;28;19921;-84
2022/01/26 03:29:09;;;;;;;;;;;4.40;74.60;;;;;;5010614;28;19991;-84
2022/01/26 03:34:00;;;;;;;;;;;4.50;74.80;;;;;;5008791;28;20067;-84
2022/01/26 03:36:32;;;;;;;;;;;4.50;74.90;;;;;;5008079;28;19921;-84
2022/01/26 03:39:04;;;;;;;;;;;4.40;75.20;;;;;;5025326;28;19928;-83
2022/01/26 03:41:38;;;;;;;;;;;4.40;75.20;;;;;;5008151;28;20341;-84
2022/01/26 03:44:04;;;;;;;;;;;4.40;75.40;;;;;;5006115;28;20465;-83
2022/01/26 03:46:30;;;;;;;;;;;4.50;76.00;;;;;;5023004;28;19921;-84
2022/01/26 03:48:56;;;;;;;;;;;4.60;75.50;;;;;;5007691;28;19921;-83
2022/01/26 03:51:21;;;;;;;;;;;4.60;75.50;;;;;;5006696;28;20008;-84
2022/01/26 03:53:47;;;;;;;;;;;4.60;75.60;;;;;;5007084;28;19941;-83
2022/01/26 03:56:12;;;;;;;;;;;4.50;75.10;;;;;;5010258;28;19914;-83
2022/01/26 03:58:38;;;;;;;;;;;4.60;75.40;;;;;;5012902;28;20024;-83
2022/01/26 04:01:03;;;;;;;;;;;4.60;75.50;;;;;;5012362;28;19917;-82
2022/01/26 04:03:29;;;;;;;;;;;4.50;75.40;;;;;;5013562;28;20043;-83
2022/01/26 04:05:54;;;;;;;;;;;4.40;75.50;;;;;;5015443;28;19972;-82
2022/01/26 04:08:31;;;;;;;;;;;4.50;75.50;;;;;;5015179;28;19953;-83
2022/01/26 04:13:37;;;;;;;;;;;4.30;75.80;;;;;;4999119;28;19928;-83
2022/01/26 04:16:03;;;;;;;;;;;4.30;76.10;;;;;;5021990;28;19910;-83
2022/01/26 04:18:34;;;;;;;;;;;4.20;76.10;;;;;;5014503;28;19913;-82
2022/01/26 04:21:07;;;;;;;;;;;4.30;76.20;;;;;;5012429;28;19924;-83
2022/01/26 04:23:56;;;;;;;;;;;4.40;75.90;;;;;;5019027;28;19914;-83
2022/01/26 04:26:31;;;;;;;;;;;4.30;75.70;;;;;;5012115;28;20138;-82
2022/01/26 04:29:05;;;;;;;;;;;4.40;75.80;;;;;;5009649;28;19917;-81
2022/01/26 04:31:31;;;;;;;;;;;4.40;75.80;;;;;;5014889;28;19921;-83
2022/01/26 04:33:57;;;;;;;;;;;4.30;75.60;;;;;;5014641;28;19921;-83
2022/01/26 04:36:37;;;;;;;;;;;4.40;75.30;;;;;;5014331;28;19914;-84
2022/01/26 04:39:07;;;;;;;;;;;4.50;75.60;;;;;;5014427;28;19917;-83
2022/01/26 04:41:46;;;;;;;;;;;4.50;75.70;;;;;;5012816;28;19918;-83
2022/01/26 04:44:27;;;;;;;;;;;4.40;75.40;;;;;;5015304;28;19914;-82
2022/01/26 04:46:53;;;;;;;;;;;4.30;74.80;;;;;;5014305;28;20009;-84
2022/01/26 04:49:19;;;;;;;;;;;4.20;75.50;;;;;;5015075;28;19914;-85
2022/01/26 04:51:45;;;;;;;;;;;4.20;75.80;;;;;;5014697;28;19914;-84
2022/01/26 04:54:10;;;;;;;;;;;4.30;74.40;;;;;;5016004;28;19917;-84
2022/01/26 04:56:36;;;;;;;;;;;4.30;74.70;;;;;;5008262;28;19972;-83
2022/01/26 04:59:02;;;;;;;;;;;4.20;75.40;;;;;;5003927;28;19992;-83
2022/01/26 05:01:27;;;;;;;;;;;4.30;75.40;;;;;;5016485;28;19984;-83
2022/01/26 05:03:53;;;;;;;;;;;4.20;75.50;;;;;;5025017;28;19913;-83
2022/01/26 05:06:18;;;;;;;;;;;4.20;75.50;;;;;;5011209;28;20266;-80
2022/01/26 05:08:44;;;;;;;;;;;4.20;75.90;;;;;;5013904;28;20012;-84
2022/01/26 05:11:13;;;;;;;;;;;4.30;76.00;;;;;;4999193;28;19987;-84
2022/01/26 05:13:39;;;;;;;;;;;4.20;75.70;;;;;;5014936;28;19913;-83
2022/01/26 05:16:06;;;;;;;;;;;4.30;75.90;;;;;;5012411;28;20388;-82
2022/01/26 05:18:33;;;;;;;;;;;4.30;75.00;;;;;;5012670;28;19949;-82
2022/01/26 05:20:58;;;;;;;;;;;4.30;75.20;;;;;;5013474;28;19979;-84
2022/01/26 05:23:24;;;;;;;;;;;4.20;75.40;;;;;;5014780;28;20359;-84
2022/01/26 05:25:49;;;;;;;;;;;4.20;75.30;;;;;;5020313;28;19925;-83
2022/01/26 05:28:15;;;;;;;;;;;4.20;75.30;;;;;;5014761;28;19998;-83
2022/01/26 05:30:40;;;;;;;;;;;4.10;75.10;;;;;;5026460;28;19913;-84
2022/01/26 05:33:06;;;;;;;;;;;4.10;74.80;;;;;;5015177;28;19936;-84
2022/01/26 05:35:31;;;;;;;;;;;4.00;75.50;;;;;;5022079;28;20123;-83
2022/01/26 05:37:57;;;;;;;;;;;4.00;76.10;;;;;;5015403;28;19909;-84
2022/01/26 05:40:23;;;;;;;;;;;4.10;76.10;;;;;;5013989;28;19914;-83
2022/01/26 05:42:48;;;;;;;;;;;4.10;75.90;;;;;;5014315;28;19921;-83
2022/01/26 05:45:32;;;;;;;;;;;4.00;75.80;;;;;;5015276;28;20000;-82
2022/01/26 05:47:58;;;;;;;;;;;4.00;75.70;;;;;;5012786;28;19921;-82
2022/01/26 05:50:23;;;;;;;;;;;4.00;76.20;;;;;;5011661;28;19913;-81
2022/01/26 05:52:50;;;;;;;;;;;4.00;76.50;;;;;;5012012;28;19952;-84
2022/01/26 05:55:15;;;;;;;;;;;4.00;76.90;;;;;;5011964;28;19913;-84
2022/01/26 05:57:41;;;;;;;;;;;4.00;77.10;;;;;;5014632;28;19909;-84
2022/01/26 06:00:07;;;;;;;;;;;4.10;76.20;;;;;;5010211;28;20265;-84
2022/01/26 06:02:33;;;;;;;;;;;4.10;76.30;;;;;;5011892;28;20059;-83
2022/01/26 06:04:58;;;;;;;;;;;4.10;76.50;;;;;;5012708;28;19918;-84
2022/01/26 06:07:24;;;;;;;;;;;4.20;76.50;;;;;;5010247;28;19968;-81
2022/01/26 06:09:49;;;;;;;;;;;4.20;76.30;;;;;;5013847;28;19957;-83
2022/01/26 06:12:15;;;;;;;;;;;4.20;76.50;;;;;;5024368;28;19922;-84
2022/01/26 06:14:40;;;;;;;;;;;4.20;76.70;;;;;;5011388;28;20005;-83
2022/01/26 06:17:07;;;;;;;;;;;4.10;77.00;;;;;;5013672;28;20482;-83
2022/01/26 06:19:33;;;;;;;;;;;4.20;77.00;;;;;;5004980;28;19968;-84
2022/01/26 06:21:58;;;;;;;;;;;4.20;76.50;;;;;;5011221;28;19917;-80
2022/01/26 06:24:24;;;;;;;;;;;4.20;76.10;;;;;;5011907;28;20452;-79
2022/01/26 06:26:49;;;;;;;;;;;4.20;76.10;;;;;;5008984;28;20393;-81
2022/01/26 06:29:15;;;;;;;;;;;4.20;75.90;;;;;;5009214;28;19914;-81
2022/01/26 06:31:42;;;;;;;;;;;4.10;76.00;;;;;;5004814;28;19914;-81
2022/01/26 06:34:09;;;;;;;;;;;4.10;76.00;;;;;;5009763;28;19948;-85
2022/01/26 06:36:36;;;;;;;;;;;4.10;76.20;;;;;;5008693;28;19925;-83
2022/01/26 06:39:01;;;;;;;;;;;4.10;76.20;;;;;;5011508;28;19924;-85
2022/01/26 06:41:27;;;;;;;;;;;4.00;76.40;;;;;;5012606;28;19909;-85
2022/01/26 06:44:03;;;;;;;;;;;3.90;76.40;;;;;;5010043;28;19962;-83
2022/01/26 06:46:41;;;;;;;;;;;3.90;76.10;;;;;;5019132;28;19933;-84
2022/01/26 06:51:50;;;;;;;;;;;4.00;76.30;;;;;;5009512;28;19943;-85
2022/01/26 06:54:16;;;;;;;;;;;4.00;75.90;;;;;;5008860;28;19929;-84
2022/01/26 06:56:41;;;;;;;;;;;3.90;76.40;;;;;;5010778;28;19909;-84
2022/01/26 06:59:07;;;;;;;;;;;3.90;76.50;;;;;;5012899;28;19921;-85
2022/01/26 07:01:32;;;;;;;;;;;3.80;76.40;;;;;;5009721;28;19921;-84
2022/01/26 07:03:58;;;;;;;;;;;3.80;76.40;;;;;;5011014;28;19917;-84
2022/01/26 07:06:23;;;;;;;;;;;3.80;76.60;;;;;;5012685;28;19909;-84
2022/01/26 07:08:49;;;;;;;;;;;3.80;76.50;;;;;;5011608;28;19917;-84
2022/01/26 07:11:14;;;;;;;;;;;3.70;77.00;;;;;;5009067;28;20358;-85
2022/01/26 07:13:41;;;;;;;;;;;3.70;77.00;;;;;;5015844;28;19922;-84
2022/01/26 07:21:35;;;;;;;;;;;3.70;76.60;;;;;;5012743;28;20040;-84
2022/01/26 07:24:00;;;;;;;;;;;3.60;76.50;;;;;;5012074;28;19957;-83
2022/01/26 07:26:28;;;;;;;;;;;3.70;76.70;;;;;;5011197;28;19913;-83
2022/01/26 07:28:55;;;;;;;;;;;3.60;76.70;;;;;;5011337;28;19917;-84
2022/01/26 07:31:21;;;;;;;;;;;3.60;76.90;;;;;;5006879;28;19929;-84
2022/01/26 07:33:53;;;;;;;;;;;3.60;76.60;;;;;;5010376;28;20227;-84
2022/01/26 07:36:18;;;;;;;;;;;3.50;77.20;;;;;;5009486;28;19920;-83
2022/01/26 07:38:44;;;;;;;;;;;3.60;76.90;;;;;;5011535;28;19910;-83
2022/01/26 07:41:09;;;;;;;;;;;3.60;76.80;;;;;;5010325;28;19917;-83
2022/01/26 07:43:34;;;;;;;;;;;3.60;77.20;;;;;;5011627;28;19909;-84
2022/01/26 07:46:00;;;;;;;;;;;3.60;77.30;;;;;;5010797;28;19925;-83
2022/01/26 07:48:26;;;;;;;;;;;3.70;77.40;;;;;;5012098;28;19920;-83
2022/01/26 07:50:52;;;;;;;;;;;3.80;77.20;;;;;;5011297;28;19914;-84
2022/01/26 07:53:18;;;;;;;;;;;3.70;76.70;;;;;;5014009;28;19913;-86
2022/01/26 07:55:44;;;;;;;;;;;3.80;76.60;;;;;;5016403;28;20015;-85
2022/01/26 07:58:10;;;;;;;;;;;3.70;76.90;;;;;;5013148;28;20352;-86
2022/01/26 08:00:36;;;;;;;;;;;3.70;77.10;;;;;;4996920;28;19914;-86
2022/01/26 08:03:01;;;;;;;;;;;3.70;77.60;;;;;;5014278;28;20412;-85
2022/01/26 08:05:27;;;;;;;;;;;3.70;77.00;;;;;;5019943;28;19981;-87
2022/01/26 08:07:53;;;;;;;;;;;3.70;77.10;;;;;;5022607;28;19979;-86
2022/01/26 08:10:18;;;;;;;;;;;3.80;77.30;;;;;;5015458;28;19913;-86
2022/01/26 08:12:44;;;;;;;;;;;3.90;76.90;;;;;;5016452;28;20340;-87
2022/01/26 08:15:09;;;;;;;;;;;3.90;77.00;;;;;;5016299;28;19924;-87
2022/01/26 08:17:36;;;;;;;;;;;3.90;76.80;;;;;;5015270;28;19917;-87
2022/01/26 08:20:04;;;;;;;;;;;3.90;76.50;;;;;;5017367;28;19945;-87
2022/01/26 08:22:30;;;;;;;;;;;3.90;76.40;;;;;;5013104;28;19960;-86
2022/01/26 08:24:56;;;;;;;;;;;3.90;76.30;;;;;;5011449;28;19913;-86
2022/01/26 08:27:24;;;;;;;;;;;3.80;76.90;;;;;;5001214;28;19965;-87
2022/01/26 08:29:54;;;;;;;;;;;3.80;76.90;;;;;;5013715;28;19917;-86
2022/01/26 08:32:20;;;;;;;;;;;3.80;76.70;;;;;;5014850;28;20387;-86
2022/01/26 08:34:45;;;;;;;;;;;3.80;77.20;;;;;;5014595;28;19981;-86
2022/01/26 08:37:11;;;;;;;;;;;3.80;77.00;;;;;;5013309;28;19983;-86
2022/01/26 08:39:36;;;;;;;;;;;3.60;77.50;;;;;;5009683;28;20294;-85
2022/01/26 08:42:03;;;;;;;;;;;3.60;78.00;;;;;;5012294;28;19929;-83
2022/01/26 08:44:28;;;;;;;;;;;3.70;77.80;;;;;;5015711;28;19910;-85
2022/01/26 08:46:54;;;;;;;;;;;3.60;77.90;;;;;;5006136;28;19917;-86
2022/01/26 08:49:21;;;;;;;;;;;3.50;77.70;;;;;;4995811;28;19914;-86
2022/01/26 08:51:49;;;;;;;;;;;3.50;78.10;;;;;;4996471;28;19938;-85
2022/01/26 08:54:16;;;;;;;;;;;3.40;78.40;;;;;;5016245;28;19920;-84
2022/01/26 08:56:41;;;;;;;;;;;3.40;78.60;;;;;;5016646;28;19917;-84
2022/01/26 08:59:07;;;;;;;;;;;3.30;78.90;;;;;;5014171;28;19910;-84
2022/01/26 09:01:32;;;;;;;;;;;3.50;78.90;;;;;;5008693;28;20004;-85
2022/01/26 09:03:58;;;;;;;;;;;3.60;78.70;;;;;;5010372;28;19917;-85
2022/01/26 09:06:23;;;;;;;;;;;3.60;78.80;;;;;;5013910;28;20289;-84
2022/01/26 09:08:58;;;;;;;;;;;3.50;78.50;;;;;;5010163;28;19989;-84
2022/01/26 09:11:24;;;;;;;;;;;3.50;78.90;;;;;;5008361;28;19909;-85
2022/01/26 09:13:56;;;;;;;;;;;3.50;79.00;;;;;;5013400;28;20019;-85
2022/01/26 09:16:24;;;;;;;;;;;3.50;79.40;;;;;;5012066;28;19914;-84
2022/01/26 09:18:52;;;;;;;;;;;3.50;79.30;;;;;;5013508;28;20384;-84
2022/01/26 09:21:19;;;;;;;;;;;3.60;78.90;;;;;;5028457;28;20388;-84
2022/01/26 09:23:45;;;;;;;;;;;3.60;79.30;;;;;;5011599;28;19933;-85
2022/01/26 09:26:10;;;;;;;;;;;3.40;79.50;;;;;;5012462;28;19922;-85
2022/01/26 09:28:36;;;;;;;;;;;3.40;79.50;;;;;;5013006;28;19921;-83
2022/01/26 09:31:02;;;;;;;;;;;3.30;79.90;;;;;;5012676;28;19910;-85
2022/01/26 09:33:27;;;;;;;;;;;3.50;79.90;;;;;;5003560;28;19919;-85
2022/01/26 09:35:53;;;;;;;;;;;3.50;80.00;;;;;;4998805;28;19936;-85
2022/01/26 09:38:18;;;;;;;;;;;3.50;79.80;;;;;;5012288;28;19920;-85
2022/01/26 09:40:46;;;;;;;;;;;3.50;80.30;;;;;;5012243;28;19923;-84
2022/01/26 09:43:13;;;;;;;;;;;3.60;80.10;;;;;;5013777;28;19988;-85
2022/01/26 09:45:38;;;;;;;;;;;3.60;80.10;;;;;;5013400;28;19925;-83
2022/01/26 09:48:04;;;;;;;;;;;3.50;80.10;;;;;;5012538;28;19925;-85
2022/01/26 09:50:30;;;;;;;;;;;3.50;80.40;;;;;;5015659;28;20266;-85
2022/01/26 09:52:56;;;;;;;;;;;3.60;80.60;;;;;;5019657;28;19976;-85
2022/01/26 09:55:23;;;;;;;;;;;3.60;80.50;;;;;;5021599;28;19949;-84
2022/01/26 09:57:48;;;;;;;;;;;3.50;80.40;;;;;;5017379;28;20316;-85
2022/01/26 10:00:14;;;;;;;;;;;3.40;81.00;;;;;;5015768;28;19961;-84
2022/01/26 10:02:43;;;;;;;;;;;3.40;80.80;;;;;;5019168;28;20000;-84
2022/01/26 10:05:12;;;;;;;;;;;3.50;81.00;;;;;;5018332;28;19924;-84
2022/01/26 10:08:01;;;;;;;;;;;3.40;81.00;;;;;;5021660;28;19916;-85
2022/01/26 10:15:26;;;;;;;;;;;3.40;81.10;;;;;;5012344;28;19952;-84
2022/01/26 10:18:39;;;;;;;;;;;3.60;80.60;;;;;;5012685;28;20125;-84
2022/01/26 10:21:07;;;;;;;;;;;3.80;80.50;;;;;;5014844;28;20351;-85
2022/01/26 10:23:40;;;;;;;;;;;3.80;80.30;;;;;;5011099;28;19920;-85
2022/01/26 10:26:06;;;;;;;;;;;3.80;80.40;;;;;;5010311;28;20393;-87
2022/01/26 10:28:46;;;;;;;;;;;3.80;80.60;;;;;;5009022;28;19917;-85
2022/01/26 10:31:15;;;;;;;;;;;3.80;80.20;;;;;;5008806;28;19936;-87
2022/01/26 10:33:51;;;;;;;;;;;3.90;80.10;;;;;;5014474;28;19925;-87
2022/01/26 10:36:16;;;;;;;;;;;4.00;80.10;;;;;;5013758;28;19909;-87
2022/01/26 10:39:14;;;;;;;;;;;3.90;80.20;;;;;;5011876;28;20230;-88
2022/01/26 10:41:45;;;;;;;;;;;3.90;80.10;;;;;;5008920;28;19916;-87
2022/01/26 10:44:16;;;;;;;;;;;3.90;80.40;;;;;;5013017;28;20310;-88
2022/01/26 10:46:42;;;;;;;;;;;4.00;80.30;;;;;;5011568;28;19925;-86
2022/01/26 10:51:54;;;;;;;;;;;4.00;80.40;;;;;;5011882;28;19999;-85
2022/01/26 10:54:42;;;;;;;;;;;4.10;80.40;;;;;;5010978;28;19925;-85
2022/01/26 10:57:08;;;;;;;;;;;4.10;80.30;;;;;;5010685;28;19910;-81
2022/01/26 10:59:34;;;;;;;;;;;4.10;80.40;;;;;;5012637;28;19914;-83
2022/01/26 11:02:01;;;;;;;;;;;4.10;80.30;;;;;;5008556;28;20396;-81
2022/01/26 11:04:27;;;;;;;;;;;4.10;80.70;;;;;;5009851;28;20381;-82
2022/01/26 11:06:53;;;;;;;;;;;4.10;81.00;;;;;;5009262;28;19996;-83
2022/01/26 11:09:21;;;;;;;;;;;4.10;81.00;;;;;;5000830;28;19952;-83
2022/01/26 11:11:46;;;;;;;;;;;4.00;81.30;;;;;;5006802;28;19997;-83
2022/01/26 11:14:16;;;;;;;;;;;4.00;81.50;;;;;;5008613;28;19933;-87
2022/01/26 11:17:00;;;;;;;;;;;4.00;81.70;;;;;;5008932;28;19924;-83
2022/01/26 11:19:26;;;;;;;;;;;4.00;81.90;;;;;;5000234;28;19913;-83
2022/01/26 11:21:52;;;;;;;;;;;4.00;82.20;;;;;;5005571;28;19913;-83
2022/01/26 11:24:22;;;;;;;;;;;4.00;82.50;;;;;;5010196;28;20047;-84
2022/01/26 11:26:49;;;;;;;;;;;4.10;82.30;;;;;;5010627;28;19937;-83
2022/01/26 11:29:14;;;;;;;;;;;4.10;82.30;;;;;;5011881;28;19922;-82
2022/01/26 11:31:41;;;;;;;;;;;4.10;82.40;;;;;;5005108;28;20096;-81
2022/01/26 11:34:07;;;;;;;;;;;4.10;82.50;;;;;;5011274;28;19917;-81
2022/01/26 11:36:32;;;;;;;;;;;4.00;82.60;;;;;;5026043;28;19971;-83
2022/01/26 11:42:11;;;;;;;;;;;4.00;83.00;;;;;;5024870;28;19910;-82
2022/01/26 11:42:21;;;;;;;;;;;4.00;83.20;;;;;;5024666;28;19959;-82
2022/01/26 11:45:07;;;;;;;;;;;4.00;83.00;;;;;;5030779;28;19953;-81
2022/01/26 11:47:36;;;;;;;;;;;4.00;83.30;;;;;;5025340;28;19921;-83
2022/01/26 11:50:09;;;;;;;;;;;4.00;83.10;;;;;;5015672;28;19921;-83
2022/01/26 11:52:38;;;;;;;;;;;4.00;83.40;;;;;;5006261;28;20013;-81
2022/01/26 11:55:09;;;;;;;;;;;4.00;83.40;;;;;;5010888;28;19940;-82
2022/01/26 11:57:38;;;;;;;;;;;4.10;83.30;;;;;;5010340;28;19918;-81
2022/01/26 12:00:07;;;;;;;;;;;4.00;83.50;;;;;;5011298;28;19913;-82
2022/01/26 12:05:14;;;;;;;;;;;4.10;83.00;;;;;;5012984;28;19920;-82
2022/01/26 12:08:09;;;;;;;;;;;4.10;83.50;;;;;;5012327;28;19941;-82
2022/01/26 12:10:36;;;;;;;;;;;4.20;82.70;;;;;;4997088;28;19913;-81
2022/01/26 12:13:05;;;;;;;;;;;4.20;82.90;;;;;;5009382;28;20323;-82
2022/01/26 12:15:34;;;;;;;;;;;4.20;83.10;;;;;;5010489;28;19917;-81
2022/01/26 12:18:18;;;;;;;;;;;4.10;82.90;;;;;;5013951;28;19941;-82
2022/01/26 12:32:10;;;;;;;;;;;4.30;82.70;;;;;;5016984;28;19929;-82
2022/01/26 12:45:19;;;;;;;;;;;4.30;82.00;;;;;;5013701;28;19968;-81
2022/01/26 12:47:45;;;;;;;;;;;4.40;82.10;;;;;;5016560;28;20007;-81
2022/01/26 12:50:11;;;;;;;;;;;4.40;81.60;;;;;;5012433;28;19968;-87
2022/01/26 12:52:36;;;;;;;;;;;4.40;82.00;;;;;;5014534;28;20370;-84
2022/01/26 12:55:02;;;;;;;;;;;4.40;81.80;;;;;;5010490;28;19976;-83
2022/01/26 12:57:28;;;;;;;;;;;4.40;82.10;;;;;;5013588;28;20027;-84
2022/01/26 13:00:00;;;;;;;;;;;4.40;81.90;;;;;;5017299;28;19981;-84
2022/01/26 13:02:26;;;;;;;;;;;4.30;82.00;;;;;;5009654;28;19921;-84
2022/01/26 13:04:59;;;;;;;;;;;4.30;81.90;;;;;;5007364;28;19913;-85
2022/01/26 13:07:24;;;;;;;;;;;4.30;82.10;;;;;;5013145;28;20428;-86
2022/01/26 13:09:50;;;;;;;;;;;4.40;82.20;;;;;;5014114;28;19928;-85
2022/01/26 13:12:18;;;;;;;;;;;4.20;82.00;;;;;;5014024;28;20012;-83
2022/01/26 13:14:54;;;;;;;;;;;4.20;82.30;;;;;;5015426;28;19917;-84
2022/01/26 13:28:01;;;;;;;;;;;4.10;83.00;;;;;;5016052;28;19936;-86
2022/01/26 13:51:33;;;;;;;;;;;4.10;82.50;;;;;;5006857;28;19944;-87
2022/01/26 13:53:54;;;;;;;;;;;4.00;82.80;;;;;;5004504;28;20289;-88
2022/01/26 13:56:55;;;;;;;;;;;4.00;82.50;;;;;;5005577;28;19910;-87
2022/01/26 13:59:26;;;;;;;;;;;4.10;82.80;;;;;;5007997;28;19960;-87
2022/01/26 14:02:04;;;;;;;;;;;4.10;82.80;;;;;;5009311;28;19914;-86
2022/01/26 14:07:54;;;;;;;;;;;4.10;82.70;;;;;;5014642;28;19925;-87
2022/01/26 14:10:25;;;;;;;;;;;4.10;82.80;;;;;;5030308;28;19929;-86
2022/01/26 14:12:51;;;;;;;;;;;4.10;83.00;;;;;;5064827;22;19956;-83
2022/01/26 14:15:35;;;;;;;;;;;4.10;83.30;;;;;;5026205;28;20280;-83
2022/01/26 14:18:08;;;;;;;;;;;4.20;83.00;;;;;;5032992;28;19917;-81
2022/01/26 14:20:46;;;;;;;;;;;4.10;83.30;;;;;;5030958;28;20086;-82
2022/01/26 14:25:46;;;;;;;;;;;4.20;83.10;;;;;;5027772;28;20002;-83
2022/01/26 14:28:14;;;;;;;;;;;4.10;83.00;;;;;;5033014;28;19917;-83
2022/01/26 15:40:49;;;;;;;;;;;4.20;84.20;;;;;;5029900;28;19998;-81
2022/01/26 15:51:13;;;;;;;;;;;4.00;84.50;;;;;;5031663;28;19931;-81
2022/01/26 16:20:16;;;;;;;;;;;4.10;84.80;;;;;;5032092;28;19921;-84
2022/01/26 16:39:28;;;;;;;;;;;4.20;85.20;;;;;;5024137;28;19914;-83
2022/01/26 17:37:45;;;;;;;;;;;4.20;85.70;;;;;;5033661;28;19927;-88
2022/01/26 17:47:16;;;;;;;;;;;4.20;85.30;;;;;;5022065;28;20287;-88
2022/01/26 18:17:04;;;;;;;;;;;4.10;85.70;;;;;;5026939;28;19919;-86
2022/01/26 18:38:42;;;;;;;;;;;4.00;85.80;;;;;;5040027;28;19944;-82
2022/01/26 18:49:46;;;;;;;;;;;4.00;86.30;;;;;;5032144;28;19976;-89
2022/01/26 18:52:15;;;;;;;;;;;4.10;86.40;;;;;;5023650;28;20384;-87
2022/01/26 18:54:41;;;;;;;;;;;4.10;86.20;;;;;;5020358;28;20435;-88
2022/01/26 18:57:07;;;;;;;;;;;4.00;86.00;;;;;;5019754;28;19960;-87
2022/01/26 18:59:33;;;;;;;;;;;3.90;86.50;;;;;;5022868;28;19964;-87
2022/01/26 19:01:59;;;;;;;;;;;4.00;86.80;;;;;;5021822;28;19917;-86
2022/01/26 19:04:32;;;;;;;;;;;4.10;86.60;;;;;;5034734;28;20341;-87
2022/01/26 19:06:58;;;;;;;;;;;4.10;86.60;;;;;;5027532;28;19941;-85
2022/01/26 19:09:27;;;;;;;;;;;4.10;86.60;;;;;;5025549;28;20422;-84
2022/01/26 19:11:53;;;;;;;;;;;4.10;86.50;;;;;;5022856;28;19917;-84
2022/01/26 19:14:21;;;;;;;;;;;4.10;86.40;;;;;;5022246;28;19936;-84
2022/01/26 19:19:38;;;;;;;;;;;4.10;86.90;;;;;;5006717;28;19926;-81
2022/01/26 19:27:09;;;;;;;;;;;4.00;87.00;;;;;;5011122;28;19928;-80
2022/01/26 19:50:55;;;;;;;;;;;3.80;87.40;;;;;;5009511;28;19928;-86
2022/01/26 19:53:20;;;;;;;;;;;3.80;87.60;;;;;;4999116;28;19937;-86
2022/01/26 19:55:46;;;;;;;;;;;3.80;87.60;;;;;;5005355;28;19918;-86
2022/01/26 19:58:12;;;;;;;;;;;3.80;87.50;;;;;;4999409;28;19914;-85
2022/01/26 20:00:43;;;;;;;;;;;3.80;87.70;;;;;;4996426;28;20393;-84
2022/01/26 20:03:10;;;;;;;;;;;3.80;87.50;;;;;;5033143;28;19922;-80
2022/01/26 20:05:44;;;;;;;;;;;3.90;87.60;;;;;;5001895;28;20282;-86
2022/01/26 20:10:55;;;;;;;;;;;3.80;87.60;;;;;;5015193;28;19925;-86
2022/01/26 20:13:28;;;;;;;;;;;3.80;87.60;;;;;;4996087;28;20298;-86
2022/01/26 20:15:53;;;;;;;;;;;3.90;87.60;;;;;;5031749;28;20313;-86
2022/01/26 20:18:20;;;;;;;;;;;3.80;87.30;;;;;;5031262;28;19918;-86
2022/01/26 20:20:49;;;;;;;;;;;3.80;87.40;;;;;;5017347;28;20371;-86
2022/01/26 20:23:15;;;;;;;;;;;3.80;87.60;;;;;;4993387;28;19918;-86
2022/01/26 20:25:42;;;;;;;;;;;3.80;87.60;;;;;;5028947;28;19913;-85
2022/01/26 20:28:10;;;;;;;;;;;3.80;87.70;;;;;;5042688;28;19919;-87
2022/01/26 20:30:39;;;;;;;;;;;3.80;87.80;;;;;;5053967;28;19909;-88
2022/01/26 20:33:05;;;;;;;;;;;3.80;87.70;;;;;;5061136;22;19925;-86
2022/01/26 20:35:30;;;;;;;;;;;3.70;87.90;;;;;;5021481;28;19921;-87
2022/01/26 20:37:56;;;;;;;;;;;3.80;87.70;;;;;;5040912;28;19916;-85
2022/01/26 20:40:22;;;;;;;;;;;3.80;88.00;;;;;;5029770;28;19918;-86
2022/01/26 20:42:47;;;;;;;;;;;3.80;87.90;;;;;;5037585;28;20004;-86
2022/01/26 20:45:20;;;;;;;;;;;3.90;88.10;;;;;;5056322;28;19963;-87
2022/01/26 20:47:45;;;;;;;;;;;3.90;87.60;;;;;;5038611;28;20490;-86
2022/01/26 20:50:11;;;;;;;;;;;3.80;87.80;;;;;;5039379;28;19948;-85
2022/01/26 20:52:37;;;;;;;;;;;3.80;87.80;;;;;;5039199;28;19913;-85
2022/01/26 20:55:04;;;;;;;;;;;3.80;87.70;;;;;;5038223;28;19964;-86
2022/01/26 20:57:30;;;;;;;;;;;3.80;87.70;;;;;;5038924;28;19964;-85
2022/01/26 20:59:56;;;;;;;;;;;3.70;87.70;;;;;;5043434;28;19916;-86
2022/01/26 21:02:22;;;;;;;;;;;3.70;87.90;;;;;;5038992;28;20292;-87
2022/01/26 21:04:47;;;;;;;;;;;3.70;87.90;;;;;;5038109;28;19914;-88
2022/01/26 21:07:13;;;;;;;;;;;3.70;87.80;;;;;;5041371;28;20465;-87
2022/01/26 21:09:38;;;;;;;;;;;3.80;87.70;;;;;;5036648;28;20296;-86
2022/01/26 21:12:04;;;;;;;;;;;3.80;87.60;;;;;;5037876;28;19921;-85
2022/01/26 21:14:30;;;;;;;;;;;3.90;87.50;;;;;;5041063;28;19949;-86
2022/01/26 21:16:55;;;;;;;;;;;3.80;87.40;;;;;;5045205;28;20001;-84
2022/01/26 21:19:21;;;;;;;;;;;3.90;87.50;;;;;;5038534;28;20016;-84
2022/01/26 21:22:04;;;;;;;;;;;4.00;87.30;;;;;;5038221;28;19920;-87
2022/01/26 21:24:29;;;;;;;;;;;3.90;86.90;;;;;;5065787;28;19967;-86
2022/01/26 21:26:56;;;;;;;;;;;3.90;87.10;;;;;;5039128;28;19913;-86
2022/01/26 21:29:22;;;;;;;;;;;3.80;87.30;;;;;;5038020;28;19909;-85
2022/01/26 21:31:50;;;;;;;;;;;3.80;87.30;;;;;;5038204;28;19917;-86
2022/01/26 21:34:21;;;;;;;;;;;3.80;87.60;;;;;;5038305;28;20267;-86
2022/01/26 21:36:48;;;;;;;;;;;3.80;87.10;;;;;;5036989;28;19913;-86
2022/01/26 21:39:16;;;;;;;;;;;3.80;87.30;;;;;;5040878;28;19944;-87
2022/01/26 21:41:41;;;;;;;;;;;3.80;87.30;;;;;;5030466;28;19922;-87
2022/01/26 21:44:08;;;;;;;;;;;3.80;87.30;;;;;;5036405;28;20447;-86
2022/01/26 21:46:34;;;;;;;;;;;3.70;87.00;;;;;;5034798;28;20291;-87
2022/01/26 21:49:03;;;;;;;;;;;3.80;87.50;;;;;;5042789;28;19917;-86
2022/01/26 21:51:28;;;;;;;;;;;3.70;87.30;;;;;;5038527;28;19909;-86
2022/01/26 21:53:54;;;;;;;;;;;3.80;87.60;;;;;;5069213;28;19987;-86
2022/01/26 21:56:20;;;;;;;;;;;3.90;87.30;;;;;;5050098;28;19917;-86